Anahola, Hawaii
Current Conditions -  °F | °C
As of 3:53 AM on Monday 22 Dec 2014 (Local Time) from PHLI Reporting Station
Haze Haze  
Wind Chill: 21°   Ceiling: 2100
Heat Index: 21°   Visibility: 4mi
Dew Point: 18°   Wind: 24mph
Humidity: 84%   Direction: 20°NNE
Pressure: 30.04"   Gusts: 33mph
Location:  22.14°N, 159.31°W
Report Text: PHLI 221353Z 02021G29KT 4SM HZ SCT014 BKN021 OVC027 21/18 A3004 RMK AO2 PK WND 02029/1345 RAE48 SLP169 P0001 T02060178
Loading
Personal Weather Stations






























Interactive Weather Map New forecast layout! Learn more

10-Day Weather Forecast

Advertisements
Track Severe Weather on mobile